Time;durP1;ratioP1;P1;durP2;ratioP2;P2;SDS_P1;SDS_P2;PMS_P1;PMS_P2;Temp;Humidity;BMP_temperature;BMP_pressure;BME280_temperature;BME280_humidity;BME280_pressure;Samples;Min_cycle;Max_cycle;Signal;HPM_P1;HPM_P2
2022/09/09 00:00:27;;;;;;;1.80;0.30;;;;;;;;;;10392461;28;20132;-57
2022/09/09 00:05:32;;;;;;;1.35;0.28;;;;;;;;;;10417825;28;20563;-61
2022/09/09 00:10:40;;;;;;;0.98;0.20;;;;;;;;;;10424013;28;20133;-58
2022/09/09 00:15:42;;;;;;;8.27;0.28;;;;;;;;;;10424324;28;20087;-57
2022/09/09 00:20:57;;;;;;;2.28;0.30;;;;;;;;;;10419414;28;20044;-58
2022/09/09 00:26:19;;;;;;;3.05;0.38;;;;;;;;;;10424626;28;20102;-57
2022/09/09 00:31:28;;;;;;;2.92;0.20;;;;;;;;;;10422363;28;20041;-57
2022/09/09 00:36:32;;;;;;;2.25;0.30;;;;;;;;;;10425669;28;20041;-60
2022/09/09 00:41:50;;;;;;;0.93;0.40;;;;;;;;;;10423394;28;20053;-59
2022/09/09 00:47:04;;;;;;;2.15;0.30;;;;;;;;;;10422622;28;20533;-58
2022/09/09 00:52:12;;;;;;;2.65;0.40;;;;;;;;;;10423085;28;20073;-57
2022/09/09 00:57:14;;;;;;;1.52;0.32;;;;;;;;;;10422983;28;20558;-59
2022/09/09 01:02:23;;;;;;;3.90;0.32;;;;;;;;;;10419667;28;20041;-57
2022/09/09 01:07:26;;;;;;;2.45;0.40;;;;;;;;;;10421398;28;20041;-57
2022/09/09 01:12:38;;;;;;;0.60;0.30;;;;;;;;;;10419374;28;20123;-59
2022/09/09 01:17:59;;;;;;;0.77;0.20;;;;;;;;;;10418986;28;20125;-59
2022/09/09 01:23:16;;;;;;;2.03;0.28;;;;;;;;;;10423149;28;20041;-58
2022/09/09 01:28:21;;;;;;;1.70;0.20;;;;;;;;;;10420266;28;20043;-58
2022/09/09 01:33:23;;;;;;;0.88;0.20;;;;;;;;;;10418196;28;20140;-59
2022/09/09 01:38:26;;;;;;;3.92;0.22;;;;;;;;;;10420717;28;20120;-59
2022/09/09 01:43:28;;;;;;;3.25;0.30;;;;;;;;;;10423190;28;20127;-58
2022/09/09 01:48:31;;;;;;;1.67;0.30;;;;;;;;;;10418738;28;20051;-57
2022/09/09 01:53:33;;;;;;;2.97;0.22;;;;;;;;;;10418598;28;20060;-58
2022/09/09 01:58:47;;;;;;;1.83;0.30;;;;;;;;;;10421788;28;20037;-58
2022/09/09 02:03:52;;;;;;;2.70;0.80;;;;;;;;;;10420284;28;20049;-58
2022/09/09 02:08:56;;;;;;;3.33;0.30;;;;;;;;;;10416429;28;20051;-57
2022/09/09 02:14:01;;;;;;;1.40;0.38;;;;;;;;;;10416707;28;20055;-59
2022/09/09 02:19:12;;;;;;;1.95;0.30;;;;;;;;;;10414150;28;20055;-60
2022/09/09 02:24:16;;;;;;;2.65;0.50;;;;;;;;;;10418911;28;20053;-61
2022/09/09 02:29:29;;;;;;;2.28;0.30;;;;;;;;;;10418249;28;20091;-57
2022/09/09 02:34:32;;;;;;;5.35;0.50;;;;;;;;;;10422837;28;20041;-59
2022/09/09 02:39:34;;;;;;;1.05;0.25;;;;;;;;;;10419285;28;20079;-61
2022/09/09 02:44:37;;;;;;;0.77;0.30;;;;;;;;;;10419839;28;20041;-59
2022/09/09 02:49:51;;;;;;;2.20;0.30;;;;;;;;;;10419644;28;20049;-59
2022/09/09 02:54:58;;;;;;;2.40;0.47;;;;;;;;;;10415853;28;20059;-60
2022/09/09 03:00:01;;;;;;;2.15;0.28;;;;;;;;;;10420797;28;20119;-59
2022/09/09 03:05:04;;;;;;;2.45;0.40;;;;;;;;;;10414143;28;20494;-61
2022/09/09 03:10:06;;;;;;;1.10;0.30;;;;;;;;;;10417683;28;20051;-59
2022/09/09 03:15:09;;;;;;;2.17;0.40;;;;;;;;;;10417507;28;20045;-55
2022/09/09 03:20:12;;;;;;;3.45;0.50;;;;;;;;;;10417187;28;20052;-57
2022/09/09 03:25:14;;;;;;;0.60;0.35;;;;;;;;;;10414607;28;20052;-58
2022/09/09 03:30:16;;;;;;;2.50;0.63;;;;;;;;;;10413669;28;20045;-59
2022/09/09 03:35:19;;;;;;;1.45;0.40;;;;;;;;;;10405793;28;20040;-56
2022/09/09 03:40:21;;;;;;;1.05;0.38;;;;;;;;;;10416234;28;20052;-58
2022/09/09 03:45:23;;;;;;;3.22;0.70;;;;;;;;;;10414952;28;20570;-58
2022/09/09 03:50:25;;;;;;;2.15;0.50;;;;;;;;;;10419353;28;20829;-56
2022/09/09 03:55:27;;;;;;;4.43;0.60;;;;;;;;;;10414533;28;20364;-56
2022/09/09 04:00:30;;;;;;;2.58;0.40;;;;;;;;;;10413325;28;20052;-55
2022/09/09 04:05:33;;;;;;;5.20;0.57;;;;;;;;;;10414231;28;20057;-59
2022/09/09 04:10:37;;;;;;;1.10;0.30;;;;;;;;;;10414815;28;20042;-56
2022/09/09 04:15:39;;;;;;;1.90;0.30;;;;;;;;;;10408825;28;20123;-57
2022/09/09 04:20:43;;;;;;;1.13;0.40;;;;;;;;;;10412417;28;22610;-58
2022/09/09 04:25:49;;;;;;;2.63;0.38;;;15.70;99.90;;;;;;10412015;28;20056;-59
2022/09/09 04:30:52;;;;;;;7.50;0.40;;;15.90;99.90;;;;;;10416263;28;20084;-60
2022/09/09 04:35:54;;;;;;;6.10;0.50;;;;;;;;;;10413499;28;20143;-56
2022/09/09 04:40:56;;;;;;;0.98;0.40;;;;;;;;;;10416454;28;20041;-57
2022/09/09 04:45:59;;;;;;;2.60;0.50;;;15.70;99.90;;;;;;10414085;28;20135;-55
2022/09/09 04:51:09;;;;;;;2.38;0.60;;;16.00;99.90;;;;;;10413602;28;20435;-56
2022/09/09 04:56:12;;;;;;;3.90;0.40;;;;;;;;;;10421502;28;22413;-55
2022/09/09 05:01:14;;;;;;;4.63;0.50;;;;;;;;;;10423692;28;20136;-60
2022/09/09 05:06:19;;;;;;;1.90;0.50;;;16.00;99.90;;;;;;10423569;28;20482;-57
2022/09/09 05:11:24;;;;;;;2.08;0.50;;;16.00;99.90;;;;;;10418678;28;20049;-55
2022/09/09 05:16:26;;;;;;;4.10;0.40;;;16.00;99.90;;;;;;10419981;28;20108;-57
2022/09/09 05:21:28;;;;;;;7.72;0.57;;;16.00;99.90;;;;;;10423074;28;20056;-57
2022/09/09 05:26:31;;;;;;;4.38;0.35;;;;;;;;;;10420820;28;20132;-58
2022/09/09 05:31:33;;;;;;;5.65;0.40;;;;;;;;;;10419251;28;20487;-57
2022/09/09 05:36:35;;;;;;;0.85;0.40;;;;;;;;;;10423837;28;20060;-57
2022/09/09 05:41:37;;;;;;;1.45;0.75;;;15.90;99.90;;;;;;10422675;28;20045;-56
2022/09/09 05:46:39;;;;;;;1.40;0.32;;;16.20;99.90;;;;;;10419113;28;20053;-57
2022/09/09 05:51:42;;;;;;;4.55;0.50;;;16.20;99.90;;;;;;10402183;28;20408;-56
2022/09/09 05:56:44;;;;;;;0.77;0.35;;;16.20;99.90;;;;;;10422542;28;20041;-58
2022/09/09 06:01:52;;;;;;;0.70;0.30;;;16.40;99.90;;;;;;10419006;28;20154;-56
2022/09/09 06:06:53;;;;;;;1.95;0.60;;;16.40;99.90;;;;;;10417008;28;20045;-56
2022/09/09 06:11:55;;;;;;;3.60;0.40;;;16.50;99.90;;;;;;10420109;28;20041;-58
2022/09/09 06:16:57;;;;;;;3.75;0.52;;;;;;;;;;10407530;28;20056;-57
2022/09/09 06:21:59;;;;;;;6.13;1.00;;;;;;;;;;10413952;28;20636;-57
2022/09/09 06:27:01;;;;;;;1.30;0.30;;;;;;;;;;10421189;28;20076;-56
2022/09/09 06:32:03;;;;;;;3.92;0.73;;;;;;;;;;10416262;28;20468;-57
2022/09/09 06:37:06;;;;;;;4.93;0.40;;;;;;;;;;10418966;28;20503;-57
2022/09/09 06:42:09;;;;;;;3.60;0.47;;;16.80;99.90;;;;;;10417544;28;20069;-57
2022/09/09 06:47:11;;;;;;;2.15;0.30;;;16.80;99.90;;;;;;10418191;28;20132;-56
2022/09/09 06:52:12;;;;;;;3.53;0.30;;;16.90;99.90;;;;;;10418857;28;20476;-55
2022/09/09 06:57:14;;;;;;;3.22;0.40;;;17.00;99.90;;;;;;10416949;28;20446;-57
2022/09/09 07:02:38;;;;;;;1.73;0.38;;;17.10;99.90;;;;;;10418447;28;20049;-59
2022/09/09 07:07:40;;;;;;;4.53;0.20;;;;;;;;;;10417413;28;20425;-57
2022/09/09 07:12:42;;;;;;;3.03;0.20;;;;;;;;;;10416516;28;20045;-56
2022/09/09 07:17:46;;;;;;;0.85;0.20;;;;;;;;;;10413246;28;20473;-56
2022/09/09 07:22:48;;;;;;;4.00;0.30;;;17.20;99.90;;;;;;10413898;28;20079;-56
2022/09/09 07:27:50;;;;;;;1.95;0.30;;;;;;;;;;10419198;28;20559;-57
2022/09/09 07:32:52;;;;;;;2.58;0.45;;;;;;;;;;10417525;28;20053;-57
2022/09/09 07:37:54;;;;;;;8.43;0.70;;;;;;;;;;10409331;28;20045;-56
2022/09/09 07:42:56;;;;;;;2.35;0.30;;;;;;;;;;10398926;28;20037;-59
2022/09/09 07:47:58;;;;;;;8.93;0.45;;;;;;;;;;10414580;28;20041;-57
2022/09/09 07:53:02;;;;;;;2.55;0.20;;;;;;;;;;10405332;28;20080;-56
2022/09/09 07:58:04;;;;;;;1.58;0.25;;;;;;;;;;10413954;28;20052;-56
2022/09/09 08:03:06;;;;;;;3.03;0.22;;;;;;;;;;10417767;28;20073;-56
2022/09/09 08:08:08;;;;;;;4.95;0.30;;;;;;;;;;10417692;28;20698;-61
2022/09/09 08:13:11;;;;;;;5.45;0.40;;;;;;;;;;10402684;28;20042;-56
2022/09/09 08:18:19;;;;;;;2.83;0.30;;;;;;;;;;10413418;28;20051;-56
2022/09/09 08:23:21;;;;;;;1.25;0.32;;;;;;;;;;10413711;28;20484;-57
2022/09/09 08:28:23;;;;;;;1.85;0.22;;;;;;;;;;10424773;28;20036;-55
2022/09/09 08:33:25;;;;;;;2.83;0.30;;;;;;;;;;10425713;28;20124;-56
2022/09/09 08:38:28;;;;;;;3.10;0.30;;;;;;;;;;10422616;28;20167;-57
2022/09/09 08:43:32;;;;;;;3.67;0.30;;;;;;;;;;10427343;28;20044;-56
2022/09/09 08:48:43;;;;;;;3.47;0.30;;;;;;;;;;10426076;28;20045;-55
2022/09/09 08:53:50;;;;;;;2.22;0.40;;;18.60;99.90;;;;;;10417399;28;20144;-57
2022/09/09 08:58:57;;;;;;;1.13;0.30;;;;;;;;;;10409783;28;20045;-56
2022/09/09 09:04:06;;;;;;;6.05;0.50;;;;;;;;;;10420254;28;20140;-57
2022/09/09 09:09:20;;;;;;;1.73;0.30;;;;;;;;;;10404339;28;20148;-57
2022/09/09 09:14:25;;;;;;;4.47;0.50;;;;;;;;;;10424014;28;20083;-60
2022/09/09 09:19:28;;;;;;;7.05;0.40;;;;;;;;;;10420505;28;20076;-61
2022/09/09 09:24:36;;;;;;;1.08;0.40;;;;;;;;;;10422937;28;20128;-57
2022/09/09 09:29:39;;;;;;;4.38;0.50;;;;;;;;;;10425619;28;20069;-56
2022/09/09 09:35:04;;;;;;;2.33;0.40;;;;;;;;;;10425861;28;20052;-56
2022/09/09 09:40:13;;;;;;;4.90;0.45;;;;;;;;;;10417340;28;20075;-57
2022/09/09 09:45:28;;;;;;;3.40;0.50;;;;;;;;;;10418694;28;20132;-57
2022/09/09 09:50:31;;;;;;;4.38;0.47;;;;;;;;;;10421803;28;20064;-57
2022/09/09 09:55:35;;;;;;;3.13;0.30;;;;;;;;;;10422036;28;20414;-57
2022/09/09 10:00:48;;;;;;;4.70;0.20;;;;;;;;;;10425506;28;20045;-59
2022/09/09 10:05:51;;;;;;;2.45;0.30;;;18.90;99.90;;;;;;10421851;28;20055;-57
2022/09/09 10:11:11;;;;;;;2.28;0.20;;;;;;;;;;10420128;28;20079;-58
2022/09/09 10:16:13;;;;;;;2.55;0.28;;;18.30;99.90;;;;;;10422819;28;20060;-58
2022/09/09 10:21:20;;;;;;;6.72;0.60;;;18.00;99.90;;;;;;10424264;28;21898;-58
2022/09/09 10:26:28;;;;;;;5.47;0.82;;;17.60;99.90;;;;;;10418960;28;20521;-60
2022/09/09 10:31:59;;;;;;;6.90;0.88;;;;;;;;;;10417581;28;20386;-57
2022/09/09 10:37:06;;;;;;;2.97;0.80;;;17.30;99.90;;;;;;10316212;28;20049;-59
2022/09/09 10:42:26;;;;;;;3.25;0.40;;;17.40;99.90;;;;;;10414612;28;20139;-61
2022/09/09 10:47:50;;;;;;;2.75;0.63;;;17.30;99.90;;;;;;10418058;28;20136;-60
2022/09/09 10:53:23;;;;;;;3.55;0.30;;;17.30;99.90;;;;;;10416815;28;20072;-58
2022/09/09 10:58:51;;;;;;;4.20;0.50;;;17.30;99.90;;;;;;10413588;28;20041;-59
2022/09/09 11:04:05;;;;;;;2.60;0.68;;;;;;;;;;10417872;28;20375;-58
2022/09/09 11:09:09;;;;;;;4.70;0.98;;;;;;;;;;10416472;28;20151;-61
2022/09/09 11:14:16;;;;;;;3.53;0.88;;;;;;;;;;10414762;28;20059;-59
2022/09/09 11:19:18;;;;;;;4.65;0.95;;;;;;;;;;10418187;28;20509;-60
2022/09/09 11:24:26;;;;;;;3.10;0.70;;;;;;;;;;10414200;28;20114;-60
2022/09/09 11:29:44;;;;;;;4.70;0.60;;;;;;;;;;10409720;28;20566;-60
2022/09/09 11:34:57;;;;;;;3.30;0.68;;;;;;;;;;10412662;28;20041;-59
2022/09/09 11:39:59;;;;;;;4.13;0.40;;;;;;;;;;10418764;28;20041;-60
2022/09/09 11:45:31;;;;;;;3.33;0.40;;;19.10;99.90;;;;;;10415985;28;20072;-57
2022/09/09 11:50:36;;;;;;;0.73;0.25;;;19.70;99.90;;;;;;10394664;28;20143;-56
2022/09/09 11:55:38;;;;;;;1.50;0.20;;;;;;;;;;10417193;28;20041;-58
2022/09/09 12:00:44;;;;;;;0.88;0.20;;;;;;;;;;10418775;28;20041;-57
2022/09/09 12:05:47;;;;;;;4.18;0.30;;;;;;;;;;10432820;28;20087;-57
2022/09/09 12:10:59;;;;;;;3.33;0.30;;;20.50;99.90;;;;;;10430876;28;20132;-57
2022/09/09 12:16:05;;;;;;;1.40;0.20;;;20.70;99.90;;;;;;10431537;28;20044;-55
2022/09/09 12:21:18;;;;;;;3.22;0.20;;;20.60;99.90;;;;;;10433717;28;20144;-56
2022/09/09 12:26:20;;;;;;;1.65;0.20;;;;;;;;;;10431201;28;20045;-56
2022/09/09 12:31:42;;;;;;;3.55;0.20;;;;;;;;;;10428754;28;20055;-56
2022/09/09 12:36:50;;;;;;;2.10;0.17;;;;;;;;;;10427946;28;20040;-58
2022/09/09 12:41:58;;;;;;;2.40;0.22;;;;;;;;;;10429654;28;20037;-58
2022/09/09 12:47:02;;;;;;;0.77;0.20;;;;;;;;;;10430479;28;20465;-55
2022/09/09 12:52:07;;;;;;;1.33;0.20;;;;;;;;;;10427721;28;20053;-55
2022/09/09 12:57:11;;;;;;;3.55;0.35;;;;;;;;;;10431355;28;20128;-56
2022/09/09 13:02:23;;;;;;;0.30;0.10;;;;;;;;;;10426425;28;20144;-58
2022/09/09 13:07:26;;;;;;;2.72;0.10;;;;;;;;;;10409879;28;20083;-61
2022/09/09 13:12:28;;;;;;;1.90;0.10;;;;;;;;;;10424711;28;20136;-57
2022/09/09 13:17:30;;;;;;;0.75;0.10;;;;;;;;;;10417449;28;20056;-59
2022/09/09 13:22:36;;;;;;;0.77;0.10;;;;;;;;;;10421962;28;20049;-58
2022/09/09 13:27:40;;;;;;;3.13;0.30;;;;;;;;;;10419096;28;20051;-57
2022/09/09 13:32:42;;;;;;;3.58;0.22;;;19.50;99.90;;;;;;10417260;28;20128;-58
2022/09/09 13:37:44;;;;;;;2.45;0.40;;;19.90;99.90;;;;;;10420726;28;20051;-56
2022/09/09 13:42:45;;;;;;;0.20;0.00;;;20.40;99.90;;;;;;10417617;28;20402;-57
2022/09/09 13:47:52;;;;;;;2.33;0.10;;;;;;;;;;10418840;28;20060;-59
2022/09/09 13:52:55;;;;;;;3.03;0.10;;;;;;;;;;10414877;28;20399;-58
2022/09/09 13:58:00;;;;;;;1.98;0.10;;;;;;;;;;10419235;28;20124;-58
2022/09/09 14:03:03;;;;;;;0.75;0.10;;;;;;;;;;10421739;28;20554;-58
2022/09/09 14:08:06;;;;;;;2.58;0.10;;;;;;;;;;10417436;28;20053;-58
2022/09/09 14:13:08;;;;;;;1.10;0.00;;;;;;;;;;10423320;28;20047;-59
2022/09/09 14:18:12;;;;;;;1.38;0.10;;;;;;;;;;10417314;28;20398;-56
2022/09/09 14:23:15;;;;;;;0.10;0.00;;;;;;;;;;10414799;28;20144;-58
2022/09/09 14:28:17;;;;;;;1.50;0.10;;;;;;;;;;10421863;28;20122;-58
2022/09/09 14:33:28;;;;;;;2.35;0.03;;;;;;;;;;10415700;28;20037;-57
2022/09/09 14:38:33;;;;;;;1.65;0.08;;;;;;;;;;10421717;28;20298;-59
2022/09/09 14:43:35;;;;;;;0.50;0.10;;;;;;;;;;10418214;28;20042;-58
2022/09/09 14:48:40;;;;;;;1.52;0.10;;;;;;;;;;10419502;28;20033;-58
2022/09/09 14:53:43;;;;;;;1.40;0.10;;;;;;;;;;10417837;28;20044;-59
2022/09/09 14:58:46;;;;;;;1.88;0.10;;;;;;;;;;10415540;28;20132;-58
2022/09/09 15:03:55;;;;;;;0.70;0.20;;;;;;;;;;10400342;28;20067;-57
2022/09/09 15:08:57;;;;;;;0.52;0.10;;;;;;;;;;10411458;28;20060;-58
2022/09/09 15:14:00;;;;;;;0.32;0.10;;;;;;;;;;10417691;28;20091;-60
2022/09/09 15:19:02;;;;;;;0.28;0.10;;;;;;;;;;10416790;28;20566;-56
2022/09/09 15:24:05;;;;;;;2.22;0.10;;;;;;;;;;10412424;28;20555;-56
2022/09/09 15:29:07;;;;;;;0.90;0.20;;;21.10;99.90;;;;;;10422695;28;20139;-55
2022/09/09 15:34:09;;;;;;;2.72;0.15;;;;;;;;;;10415072;28;20041;-56
2022/09/09 15:39:15;;;;;;;1.65;0.10;;;;;;;;;;10418335;28;20051;-57
2022/09/09 15:44:18;;;;;;;1.85;0.10;;;;;;;;;;10419044;28;20479;-58
2022/09/09 15:49:22;;;;;;;0.65;0.10;;;;;;;;;;10418005;28;20041;-57
2022/09/09 15:54:25;;;;;;;0.68;0.10;;;;;;;;;;10409946;28;20045;-56
2022/09/09 15:59:28;;;;;;;2.00;0.10;;;;;;;;;;10409232;28;20041;-58
2022/09/09 16:04:31;;;;;;;1.50;0.20;;;;;;;;;;10412931;28;20049;-57
2022/09/09 16:09:33;;;;;;;2.15;0.20;;;;;;;;;;10417827;28;20059;-61
2022/09/09 16:14:35;;;;;;;1.20;0.00;;;;;;;;;;10419149;28;20128;-57
2022/09/09 16:19:37;;;;;;;0.80;0.10;;;;;;;;;;10416390;28;20518;-58
2022/09/09 16:24:39;;;;;;;2.45;0.20;;;;;;;;;;10416941;28;20064;-56
2022/09/09 16:29:42;;;;;;;1.08;0.10;;;;;;;;;;10411910;28;20067;-58
2022/09/09 16:34:44;;;;;;;0.95;0.10;;;;;;;;;;10422138;28;20045;-58
2022/09/09 16:39:46;;;;;;;0.38;0.10;;;;;;;;;;10418909;28;20052;-61
2022/09/09 16:44:49;;;;;;;4.72;0.43;;;19.10;99.90;;;;;;10413635;28;20510;-56
2022/09/09 16:49:51;;;;;;;5.25;0.20;;;;;;;;;;10417303;28;20556;-58
2022/09/09 16:54:53;;;;;;;4.45;0.20;;;;;;;;;;10425259;28;20037;-59
2022/09/09 16:59:59;;;;;;;1.75;0.10;;;;;;;;;;10422319;28;20045;-59
2022/09/09 17:05:01;;;;;;;1.05;0.30;;;;;;;;;;10425596;28;20041;-59
2022/09/09 17:10:03;;;;;;;0.60;0.20;;;;;;;;;;10415698;28;20041;-59
2022/09/09 17:15:05;;;;;;;2.63;0.15;;;;;;;;;;10418361;28;20080;-57
2022/09/09 17:20:09;;;;;;;2.70;0.22;;;;;;;;;;10421339;28;20055;-66
2022/09/09 17:25:11;;;;;;;0.22;0.05;;;;;;;;;;10413756;28;20131;-67
2022/09/09 17:30:13;;;;;;;1.00;0.20;;;;;;;;;;10412776;28;20092;-67
2022/09/09 17:35:16;;;;;;;1.30;0.05;;;;;;;;;;10423875;28;20131;-67
2022/09/09 17:40:18;;;;;;;4.45;0.70;;;;;;;;;;10421952;28;20132;-68
2022/09/09 17:45:20;;;;;;;0.65;0.20;;;;;;;;;;10424495;28;20064;-67
2022/09/09 17:50:23;;;;;;;0.15;0.10;;;;;;;;;;10419569;28;20638;-68
2022/09/09 17:55:25;;;;;;;2.33;0.10;;;;;;;;;;10396714;28;20128;-67
2022/09/09 18:00:30;;;;;;;0.68;0.30;;;;;;;;;;10424035;28;20374;-66
2022/09/09 18:05:32;;;;;;;0.32;0.20;;;;;;;;;;10414801;28;20517;-67
2022/09/09 18:10:34;;;;;;;1.65;0.20;;;;;;;;;;10414372;28;20100;-72
2022/09/09 18:15:36;;;;;;;0.82;0.30;;;;;;;;;;10419128;28;20045;-69
2022/09/09 18:21:00;;;;;;;0.93;0.20;;;;;;;;;;10418565;28;20049;-69
2022/09/09 18:26:10;;;;;;;2.03;0.10;;;;;;;;;;10417001;28;20056;-70
2022/09/09 18:31:13;;;;;;;2.70;0.20;;;;;;;;;;10427165;28;20097;-66
2022/09/09 18:36:20;;;;;;;1.50;0.20;;;;;;;;;;10428614;28;20049;-67
2022/09/09 18:41:24;;;;;;;0.47;0.05;;;;;;;;;;10421334;28;20124;-68
2022/09/09 18:46:27;;;;;;;0.90;0.10;;;;;;;;;;10419163;28;20070;-57
2022/09/09 18:51:29;;;;;;;3.42;0.20;;;;;;;;;;10418774;28;20053;-56
2022/09/09 18:56:31;;;;;;;2.70;0.15;;;;;;;;;;10418928;28;20052;-56
2022/09/09 19:01:37;;;;;;;1.52;0.15;;;;;;;;;;10418170;28;20128;-58
2022/09/09 19:06:41;;;;;;;1.83;0.20;;;;;;;;;;10415828;28;20499;-58
2022/09/09 19:11:44;;;;;;;1.15;0.20;;;;;;;;;;10417175;28;20059;-58
2022/09/09 19:16:47;;;;;;;2.53;0.30;;;;;;;;;;10418031;28;20060;-56
2022/09/09 19:21:50;;;;;;;1.75;0.30;;;;;;;;;;10419394;28;20045;-59
2022/09/09 19:26:53;;;;;;;1.48;0.20;;;;;;;;;;10410949;28;20065;-57
2022/09/09 19:31:58;;;;;;;1.75;0.25;;;;;;;;;;10414474;28;20082;-62
2022/09/09 19:37:21;;;;;;;0.52;0.10;;;;;;;;;;10421303;28;20059;-57
2022/09/09 19:42:23;;;;;;;1.27;0.10;;;;;;;;;;10421483;28;20128;-58
2022/09/09 19:47:26;;;;;;;2.50;0.08;;;;;;;;;;10411501;28;20207;-59
2022/09/09 19:52:28;;;;;;;0.73;0.10;;;;;;;;;;10415544;28;20114;-57
2022/09/09 19:57:30;;;;;;;0.47;0.10;;;;;;;;;;10046395;28;1055436;-59
2022/09/09 20:02:32;;;;;;;0.60;0.10;;;;;;;;;;10357377;28;20577;-57
2022/09/09 20:07:34;;;;;;;1.98;0.20;;;;;;;;;;10414932;28;20075;-57
2022/09/09 20:14:54;;;;;;;1.00;0.20;;;15.50;99.90;;;;;;10486593;27;20356;-59
2022/09/09 20:19:56;;;;;;;0.90;0.10;;;15.50;99.90;;;;;;10434317;28;20510;-60
2022/09/09 20:24:58;;;;;;;1.55;0.20;;;15.40;99.90;;;;;;10441717;28;20053;-64
2022/09/09 20:30:00;;;;;;;3.78;0.20;;;15.40;99.90;;;;;;10429985;28;20072;-61
2022/09/09 20:35:01;;;;;;;0.55;0.20;;;15.30;99.90;;;;;;10432282;28;20048;-59
2022/09/09 20:40:03;;;;;;;1.48;0.30;;;15.30;99.90;;;;;;10422044;28;20687;-59
2022/09/09 20:45:05;;;;;;;1.17;0.50;;;15.30;99.90;;;;;;10427005;28;20051;-58
2022/09/09 20:50:08;;;;;;;0.47;0.20;;;15.30;99.90;;;;;;10430353;28;20041;-60
2022/09/09 20:55:10;;;;;;;1.40;0.43;;;15.20;99.90;;;;;;10439718;28;20050;-59
2022/09/09 21:00:12;;;;;;;2.72;0.20;;;15.20;99.90;;;;;;10433563;28;20073;-58
2022/09/09 21:05:14;;;;;;;1.20;0.20;;;15.20;99.90;;;;;;10421485;28;20152;-58
2022/09/09 21:10:16;;;;;;;0.50;0.20;;;15.20;99.90;;;;;;10415819;28;21586;-59
2022/09/09 21:15:17;;;;;;;0.68;0.38;;;15.10;99.90;;;;;;10434113;28;20051;-58
2022/09/09 21:20:20;;;;;;;0.47;0.20;;;15.10;99.90;;;;;;10436982;28;20163;-59
2022/09/09 21:25:21;;;;;;;1.08;0.20;;;15.10;99.90;;;;;;10403441;28;20144;-60
2022/09/09 21:30:24;;;;;;;1.50;0.10;;;15.00;99.90;;;;;;10403580;28;20049;-59
2022/09/09 21:35:39;;;;;;;0.85;0.20;;;14.90;99.90;;;;;;10407992;28;20043;-59
2022/09/09 21:40:42;;;;;;;1.67;0.13;;;14.90;99.90;;;;;;10407333;28;20087;-60
2022/09/09 21:45:43;;;;;;;3.58;0.52;;;14.90;99.90;;;;;;10394079;28;20060;-61
2022/09/09 21:50:46;;;;;;;1.27;0.20;;;14.90;99.90;;;;;;10401486;28;20041;-59
2022/09/09 21:55:48;;;;;;;1.75;0.20;;;14.90;99.90;;;;;;10402379;28;20164;-58
2022/09/09 22:00:50;;;;;;;0.40;0.00;;;14.80;99.90;;;;;;10393820;28;20037;-60
2022/09/09 22:05:51;;;;;;;1.77;0.10;;;14.80;99.90;;;;;;10398865;28;20048;-61
2022/09/09 22:10:54;;;;;;;0.63;0.20;;;14.80;99.90;;;;;;10405411;28;20048;-62
2022/09/09 22:15:57;;;;;;;0.88;0.30;;;14.80;99.90;;;;;;10405728;28;20144;-64
2022/09/09 22:21:03;;;;;;;1.10;0.20;;;14.80;99.90;;;;;;10391184;28;20458;-61
2022/09/09 22:26:05;;;;;;;3.20;0.50;;;14.80;99.90;;;;;;10395724;28;20091;-59
2022/09/09 22:31:07;;;;;;;3.03;0.40;;;14.80;99.90;;;;;;10406423;28;20049;-59
2022/09/09 22:36:09;;;;;;;6.05;0.68;;;14.80;99.90;;;;;;10395230;28;20045;-59
2022/09/09 22:41:12;;;;;;;1.77;0.93;;;14.70;99.90;;;;;;10391334;28;20060;-60
2022/09/09 22:46:14;;;;;;;2.05;0.90;;;14.70;99.90;;;;;;10394561;28;20084;-59
2022/09/09 22:51:16;;;;;;;3.47;1.15;;;14.70;99.90;;;;;;10401869;28;20145;-60
2022/09/09 22:56:18;;;;;;;5.10;1.00;;;14.70;99.90;;;;;;10387795;28;20135;-60
2022/09/09 23:01:21;;;;;;;2.28;1.10;;;14.70;99.90;;;;;;10394606;28;20475;-59
2022/09/09 23:06:25;;;;;;;2.08;1.00;;;14.70;99.90;;;;;;10393293;28;20407;-59
2022/09/09 23:11:30;;;;;;;3.00;1.17;;;14.70;99.90;;;;;;10402914;28;20053;-59
2022/09/09 23:16:38;;;;;;;2.70;1.05;;;14.70;99.90;;;;;;10404691;28;20059;-61
2022/09/09 23:21:41;;;;;;;2.53;0.70;;;14.60;99.90;;;;;;10401438;28;20045;-59
2022/09/09 23:26:44;;;;;;;6.03;0.73;;;14.60;99.90;;;;;;10399677;28;20103;-60
2022/09/09 23:31:46;;;;;;;2.95;0.50;;;14.60;99.90;;;;;;10393319;28;22841;-59
2022/09/09 23:36:48;;;;;;;2.85;0.85;;;14.60;99.90;;;;;;10405234;28;20066;-61
2022/09/09 23:41:49;;;;;;;2.10;0.77;;;14.60;99.90;;;;;;10392305;28;20052;-59
2022/09/09 23:46:51;;;;;;;2.55;0.70;;;14.60;99.90;;;;;;10395262;28;20047;-61
2022/09/09 23:51:53;;;;;;;2.25;0.52;;;14.60;99.90;;;;;;10399322;28;20335;-59
2022/09/09 23:56:55;;;;;;;1.83;0.70;;;14.60;99.90;;;;;;10386641;28;20041;-59
